Time;durP1;ratioP1;P1;durP2;ratioP2;P2;SDS_P1;SDS_P2;PMS_P1;PMS_P2;Temp;Humidity;BMP_temperature;BMP_pressure;BME280_temperature;BME280_humidity;BME280_pressure;Samples;Min_cycle;Max_cycle;Signal;HPM_P1;HPM_P2
2020/12/09 07:54:55;;;;;;;6.22;3.28;;;6.60;74.50;;;;;;5127259;27;20361;-74
2020/12/09 07:57:42;;;;;;;6.00;3.17;;;6.90;73.50;;;;;;5064881;28;1145926;-77
2020/12/09 08:00:16;;;;;;;8.25;3.78;;;6.60;73.20;;;;;;5099406;28;20066;-77
2020/12/09 08:02:46;;;;;;;11.07;5.88;;;6.40;73.30;;;;;;5111372;28;20154;-77
2020/12/09 08:05:21;;;;;;;7.70;5.63;;;6.60;74.80;;;;;;5107924;28;20126;-77
2020/12/09 08:07:56;;;;;;;8.02;4.00;;;6.70;75.50;;;;;;5111249;28;20499;-77
2020/12/09 08:10:34;;;;;;;7.97;3.00;;;6.90;75.30;;;;;;5111831;28;20043;-77
2020/12/09 08:13:08;;;;;;;6.22;3.00;;;6.80;76.10;;;;;;5106403;28;20071;-76
2020/12/09 08:19:14;;;;;;;6.68;3.15;;;6.70;77.10;;;;;;5094676;28;20030;-76
2020/12/09 09:20:11;;;;;;;11.38;5.20;;;11.40;69.50;;;;;;5137596;27;20544;-75
2020/12/09 09:22:37;;;;;;;11.55;4.30;;;11.30;70.10;;;;;;5118755;27;20055;-78
2020/12/09 09:25:04;;;;;;;15.73;9.63;;;11.00;70.40;;;;;;5118900;27;20085;-75
2020/12/09 09:27:33;;;;;;;13.57;8.25;;;11.40;71.00;;;;;;5137138;27;20073;-76
2020/12/09 09:30:03;;;;;;;16.60;8.63;;;10.80;71.50;;;;;;5137748;27;20114;-75
2020/12/09 09:33:03;;;;;;;15.80;8.10;;;10.40;70.60;;;;;;5119217;27;20047;-74
2020/12/09 09:35:37;;;;;;;13.75;7.50;;;10.20;71.60;;;;;;5137500;27;20096;-75
2020/12/09 09:38:09;;;;;;;16.75;8.02;;;10.20;71.90;;;;;;5137244;27;20126;-76
2020/12/09 09:40:35;;;;;;;19.10;10.02;;;10.60;73.40;;;;;;5137216;27;20078;-76
2020/12/09 09:43:01;;;;;;;14.93;8.73;;;9.50;72.50;;;;;;5136969;27;20053;-75
2020/12/09 09:45:27;;;;;;;21.58;12.40;;;10.40;73.10;;;;;;5136350;27;20118;-76
2020/12/09 09:47:53;;;;;;;16.98;10.57;;;9.60;72.90;;;;;;5136993;27;20130;-76
2020/12/09 09:50:25;;;;;;;13.65;8.30;;;9.80;73.60;;;;;;5136796;27;20046;-76
2020/12/09 09:53:00;;;;;;;13.70;7.65;;;9.70;73.30;;;;;;5136747;27;20035;-75
2020/12/09 09:59:44;;;;;;;11.35;6.68;;;10.10;74.00;;;;;;5136416;27;20083;-76
2020/12/09 10:02:50;;;;;;;9.95;6.70;;;9.60;73.70;;;;;;5136866;27;20057;-75
2020/12/09 10:14:57;;;;;;;38.63;20.50;;;10.00;76.10;;;;;;5048640;28;20130;-74
2020/12/09 10:17:23;;;;;;;10.98;5.75;;;10.30;76.10;;;;;;5072081;28;20083;-74
2020/12/09 10:19:48;;;;;;;13.02;7.25;;;9.50;75.50;;;;;;5072749;28;20068;-74
2020/12/09 10:22:14;;;;;;;21.80;10.48;;;9.70;75.70;;;;;;5071066;28;20045;-74
2020/12/09 10:24:40;;;;;;;18.73;10.48;;;9.60;75.90;;;;;;5072585;28;20044;-74
2020/12/09 10:27:06;;;;;;;11.48;5.40;;;9.60;76.30;;;;;;5072047;28;20078;-74
2020/12/09 10:29:32;;;;;;;8.25;4.88;;;9.70;75.80;;;;;;5072478;28;20075;-74
2020/12/09 10:31:57;;;;;;;10.32;4.63;;;9.10;75.70;;;;;;5072479;28;20067;-74
2020/12/09 10:34:23;;;;;;;8.10;4.65;;;9.30;75.50;;;;;;5072329;28;20036;-74
2020/12/09 10:36:51;;;;;;;7.63;4.55;;;9.30;75.70;;;;;;5072303;28;20090;-74
2020/12/09 10:39:26;;;;;;;9.25;5.10;;;9.30;75.60;;;;;;5098075;28;20036;-74
2020/12/09 10:41:52;;;;;;;9.55;5.30;;;9.50;76.20;;;;;;5115399;28;20044;-74
2020/12/09 10:44:19;;;;;;;8.60;5.90;;;9.20;75.80;;;;;;5115494;28;20118;-74
2020/12/09 10:46:45;;;;;;;9.48;6.65;;;9.50;76.10;;;;;;5115680;28;20122;-74
2020/12/09 10:49:12;;;;;;;8.65;6.10;;;9.90;76.20;;;;;;5115405;28;20028;-74
2020/12/09 10:51:48;;;;;;;14.68;11.55;;;9.30;76.50;;;;;;5115235;28;20043;-74
2020/12/09 10:54:16;;;;;;;14.65;10.43;;;9.60;76.00;;;;;;5114792;27;20045;-74
2020/12/09 10:56:41;;;;;;;14.52;9.77;;;9.50;76.50;;;;;;5115159;28;20047;-74
2020/12/09 10:59:07;;;;;;;14.98;9.68;;;9.70;76.40;;;;;;5114589;28;20037;-75
2020/12/09 11:01:33;;;;;;;16.52;10.38;;;10.40;77.30;;;;;;5114591;28;20149;-75
2020/12/09 11:04:00;;;;;;;13.30;7.80;;;9.90;76.70;;;;;;5099414;28;20502;-74
2020/12/09 11:06:34;;;;;;;11.95;7.10;;;10.00;76.70;;;;;;5114108;28;20093;-73
2020/12/09 11:09:03;;;;;;;10.60;6.57;;;10.40;77.10;;;;;;5097310;28;20127;-73
2020/12/09 11:11:29;;;;;;;13.93;5.55;;;10.60;77.20;;;;;;5094463;28;20036;-74
2020/12/09 11:13:55;;;;;;;15.55;8.55;;;10.60;76.20;;;;;;5094093;28;20035;-74
2020/12/09 11:16:21;;;;;;;15.80;6.90;;;10.90;76.20;;;;;;5088062;28;20457;-74
2020/12/09 11:18:49;;;;;;;13.65;6.55;;;11.50;76.70;;;;;;5088829;28;20040;-74
2020/12/09 11:21:24;;;;;;;13.30;7.78;;;11.30;75.30;;;;;;5093786;28;20408;-73
2020/12/09 11:23:51;;;;;;;11.63;6.07;;;11.70;76.00;;;;;;5094009;28;20128;-73
2020/12/09 11:26:18;;;;;;;10.23;5.32;;;11.70;76.00;;;;;;5093913;28;20121;-72
2020/12/09 11:28:44;;;;;;;14.00;4.65;;;11.50;75.60;;;;;;5093749;28;20039;-73
2020/12/09 11:31:11;;;;;;;8.23;3.60;;;11.60;74.80;;;;;;5076349;28;20113;-74
2020/12/09 11:33:37;;;;;;;9.93;3.83;;;11.90;75.60;;;;;;5093320;28;20131;-74
2020/12/09 11:36:04;;;;;;;10.13;3.15;;;12.00;75.00;;;;;;5075989;28;20044;-73
2020/12/09 11:38:30;;;;;;;9.52;3.70;;;12.30;74.80;;;;;;5094158;28;20059;-74
2020/12/09 11:40:56;;;;;;;10.52;4.47;;;11.70;74.20;;;;;;5093734;28;20119;-75
2020/12/09 11:43:24;;;;;;;7.75;2.85;;;12.00;74.40;;;;;;5093937;28;20118;-77
2020/12/09 11:45:50;;;;;;;8.38;3.67;;;12.20;74.30;;;;;;5092893;28;20040;-75
2020/12/09 11:48:16;;;;;;;11.35;3.42;;;12.50;74.60;;;;;;5092607;28;20040;-74
2020/12/09 11:50:42;;;;;;;7.28;2.35;;;12.00;74.20;;;;;;5094343;28;20546;-74
2020/12/09 11:53:09;;;;;;;8.77;2.78;;;12.40;74.40;;;;;;5093441;28;20044;-72
2020/12/09 11:55:36;;;;;;;8.57;2.70;;;12.30;74.10;;;;;;5093418;28;20150;-72
2020/12/09 11:58:02;;;;;;;8.48;3.35;;;12.40;74.40;;;;;;5093468;28;20051;-73
2020/12/09 12:00:28;;;;;;;9.73;3.10;;;12.30;73.50;;;;;;5093143;28;20044;-73
2020/12/09 12:02:55;;;;;;;9.60;3.40;;;12.40;74.20;;;;;;5092460;28;20040;-74
2020/12/09 12:05:23;;;;;;;8.95;3.20;;;12.40;74.40;;;;;;5092880;28;20105;-73
2020/12/09 12:07:49;;;;;;;11.55;2.97;;;12.50;73.90;;;;;;5092478;28;20433;-74
2020/12/09 12:10:15;;;;;;;9.88;3.58;;;12.50;73.80;;;;;;5093510;28;20054;-74
2020/12/09 12:12:41;;;;;;;10.68;3.40;;;12.10;73.50;;;;;;5093552;28;20482;-74
2020/12/09 12:15:07;;;;;;;8.00;3.10;;;12.30;74.10;;;;;;5092293;28;20051;-73
2020/12/09 12:17:33;;;;;;;8.90;3.00;;;12.10;74.30;;;;;;5092805;28;20040;-74
2020/12/09 12:19:59;;;;;;;8.15;2.75;;;11.70;74.10;;;;;;5093414;28;20113;-74
2020/12/09 12:22:25;;;;;;;9.57;2.80;;;11.90;74.00;;;;;;5093021;28;20515;-73
2020/12/09 12:24:51;;;;;;;10.02;3.10;;;12.50;74.40;;;;;;5085571;28;20047;-74
2020/12/09 12:27:17;;;;;;;10.40;3.90;;;11.70;73.90;;;;;;5092296;28;20036;-74
2020/12/09 12:29:43;;;;;;;12.75;4.15;;;11.80;74.00;;;;;;5092571;28;20127;-74
2020/12/09 12:32:09;;;;;;;10.00;4.05;;;11.00;74.10;;;;;;5092898;28;20517;-74
2020/12/09 12:34:36;;;;;;;7.78;4.18;;;11.80;74.80;;;;;;5092848;28;20566;-74
2020/12/09 12:37:03;;;;;;;8.90;3.75;;;11.70;75.00;;;;;;5093173;28;20040;-73
2020/12/09 12:39:29;;;;;;;9.88;3.80;;;11.70;74.70;;;;;;5095234;28;20495;-72
2020/12/09 12:41:55;;;;;;;16.33;6.20;;;11.10;74.00;;;;;;5096393;28;20169;-73
2020/12/09 12:44:21;;;;;;;10.27;3.17;;;11.50;74.00;;;;;;5096929;28;20094;-73
2020/12/09 12:46:51;;;;;;;9.18;3.30;;;11.70;74.20;;;;;;5095682;28;20032;-73
2020/12/09 12:49:17;;;;;;;10.85;3.70;;;11.60;73.50;;;;;;5096354;28;20040;-73
2020/12/09 12:51:44;;;;;;;9.38;3.47;;;11.20;74.20;;;;;;5096236;28;20050;-73
2020/12/09 12:54:10;;;;;;;10.20;3.00;;;11.20;74.20;;;;;;5096329;28;20039;-73
2020/12/09 12:56:36;;;;;;;6.53;2.65;;;11.10;74.40;;;;;;5096057;28;20071;-73
2020/12/09 12:59:02;;;;;;;9.05;3.00;;;11.80;74.50;;;;;;5096078;28;20044;-72
2020/12/09 13:01:28;;;;;;;7.85;2.47;;;11.40;74.30;;;;;;5096466;28;20036;-73
2020/12/09 13:03:54;;;;;;;8.98;2.60;;;11.70;74.80;;;;;;5096276;28;20513;-72
2020/12/09 13:06:20;;;;;;;7.70;2.35;;;11.20;74.50;;;;;;5096856;28;20046;-72
2020/12/09 13:08:46;;;;;;;11.60;3.25;;;11.40;75.00;;;;;;5096549;28;20119;-72
2020/12/09 13:11:14;;;;;;;9.20;2.72;;;11.20;75.60;;;;;;5096139;28;20043;-73
2020/12/09 13:13:40;;;;;;;7.35;2.80;;;11.10;75.00;;;;;;5096197;28;20087;-72
2020/12/09 13:16:06;;;;;;;10.30;2.95;;;11.20;75.20;;;;;;5115249;27;20074;-72
2020/12/09 13:18:32;;;;;;;12.43;3.17;;;11.30;75.20;;;;;;5136724;27;20130;-72
2020/12/09 13:20:59;;;;;;;8.70;3.08;;;11.50;75.10;;;;;;5137533;27;20497;-72
2020/12/09 13:23:25;;;;;;;10.90;3.40;;;11.70;75.20;;;;;;5136939;27;20130;-71
2020/12/09 13:25:51;;;;;;;10.80;3.70;;;11.00;74.80;;;;;;5136972;27;20123;-72
2020/12/09 13:28:16;;;;;;;15.85;6.50;;;11.60;75.30;;;;;;5137213;27;20121;-71
2020/12/09 13:30:42;;;;;;;12.63;4.85;;;11.10;74.80;;;;;;5136854;27;20478;-73
2020/12/09 13:33:12;;;;;;;11.05;4.38;;;11.40;75.10;;;;;;5137024;27;20039;-73
2020/12/09 13:35:40;;;;;;;9.55;3.67;;;11.30;75.30;;;;;;5136685;27;20084;-72
2020/12/09 13:38:06;;;;;;;12.15;3.92;;;11.20;75.60;;;;;;5136899;27;20032;-72
2020/12/09 13:40:32;;;;;;;10.02;3.00;;;11.30;75.20;;;;;;5136885;27;20095;-71
2020/12/09 13:42:58;;;;;;;11.23;3.63;;;11.00;75.40;;;;;;5136393;27;20031;-71
2020/12/09 13:45:24;;;;;;;12.55;4.32;;;11.30;75.40;;;;;;5136307;27;20050;-72
2020/12/09 13:47:50;;;;;;;12.38;4.07;;;11.50;75.40;;;;;;5136548;27;20428;-72
2020/12/09 13:50:16;;;;;;;16.73;6.63;;;11.60;75.80;;;;;;5136510;27;20071;-72
2020/12/09 13:52:41;;;;;;;12.32;5.05;;;11.60;75.80;;;;;;5136031;27;20133;-72
2020/12/09 13:55:07;;;;;;;10.77;4.72;;;10.90;75.50;;;;;;5136704;27;20404;-72
2020/12/09 13:57:33;;;;;;;13.68;6.38;;;11.30;76.30;;;;;;5136280;27;20038;-72
2020/12/09 13:59:59;;;;;;;12.77;4.72;;;10.70;75.70;;;;;;5136389;27;20034;-73
2020/12/09 14:02:25;;;;;;;11.90;3.97;;;11.00;75.50;;;;;;5124845;27;20039;-72
2020/12/09 14:05:05;;;;;;;33.80;18.65;;;10.70;75.80;;;;;;5101694;28;20533;-71
2020/12/09 14:07:32;;;;;;;62.03;31.48;;;11.40;76.80;;;;;;5099433;27;20059;-72
2020/12/09 14:09:58;;;;;;;50.47;28.27;;;11.20;75.80;;;;;;5111806;28;20536;-72
2020/12/09 14:12:23;;;;;;;41.88;24.35;;;10.70;75.70;;;;;;5097031;28;20043;-72
2020/12/09 14:14:49;;;;;;;34.83;17.65;;;11.00;75.70;;;;;;5108866;28;20031;-72
2020/12/09 14:17:16;;;;;;;19.63;10.10;;;11.00;75.90;;;;;;5095664;28;20117;-72
2020/12/09 14:19:44;;;;;;;20.38;12.30;;;11.50;76.40;;;;;;5087391;28;20127;-73
2020/12/09 14:22:11;;;;;;;12.20;5.53;;;10.50;75.80;;;;;;5057082;28;20048;-73
2020/12/09 14:24:38;;;;;;;11.02;3.78;;;10.90;75.50;;;;;;5082197;28;20036;-73
2020/12/09 14:27:09;;;;;;;9.18;3.25;;;10.90;76.30;;;;;;5094164;28;20094;-71
2020/12/09 14:29:36;;;;;;;11.95;3.58;;;11.20;75.90;;;;;;5076471;28;20430;-72
2020/12/09 14:32:02;;;;;;;16.30;4.93;;;11.30;76.80;;;;;;5094816;28;20054;-74
2020/12/09 14:34:27;;;;;;;16.20;6.57;;;10.90;76.80;;;;;;5095082;28;20111;-71
2020/12/09 14:36:53;;;;;;;13.13;6.43;;;11.10;76.50;;;;;;5094668;28;20043;-72
2020/12/09 14:39:20;;;;;;;13.82;5.70;;;10.90;76.70;;;;;;5095322;28;20169;-71
2020/12/09 14:41:47;;;;;;;12.45;5.68;;;11.10;77.20;;;;;;5076981;28;20032;-72
2020/12/09 14:44:14;;;;;;;11.85;4.85;;;11.20;77.10;;;;;;5094374;28;20067;-72
2020/12/09 14:46:46;;;;;;;14.95;5.10;;;11.10;76.00;;;;;;5094363;28;20083;-71
2020/12/09 14:49:15;;;;;;;10.48;4.45;;;10.90;76.20;;;;;;5086762;28;20052;-72
2020/12/09 14:51:41;;;;;;;11.35;4.40;;;10.90;75.10;;;;;;5074223;28;20526;-73
2020/12/09 14:54:12;;;;;;;19.15;8.68;;;11.00;76.20;;;;;;5074159;28;20041;-73
2020/12/09 14:56:38;;;;;;;13.05;6.50;;;11.40;75.70;;;;;;5073933;28;20082;-72
2020/12/09 14:59:05;;;;;;;27.63;16.35;;;11.10;76.80;;;;;;5074558;28;20072;-72
2020/12/09 15:01:31;;;;;;;15.80;6.88;;;11.00;76.30;;;;;;5073532;28;20051;-72
2020/12/09 15:03:58;;;;;;;37.95;21.17;;;10.70;76.20;;;;;;5074187;28;20401;-72
2020/12/09 15:06:24;;;;;;;15.70;7.18;;;11.00;76.40;;;;;;5071902;28;20048;-72
2020/12/09 15:08:50;;;;;;;31.77;16.17;;;11.60;76.20;;;;;;5090950;28;20070;-72
2020/12/09 15:11:26;;;;;;;30.02;13.85;;;11.30;76.20;;;;;;5092930;28;20097;-72
2020/12/09 15:13:53;;;;;;;36.47;19.00;;;10.80;76.60;;;;;;5093160;28;20051;-72
2020/12/09 15:16:22;;;;;;;34.22;16.20;;;10.90;76.10;;;;;;5093416;28;20051;-72
2020/12/09 15:18:49;;;;;;;77.15;40.83;;;11.50;77.00;;;;;;5083743;28;20048;-74
2020/12/09 15:21:16;;;;;;;70.30;37.72;;;11.50;76.60;;;;;;5074413;28;20032;-72
2020/12/09 15:23:42;;;;;;;57.60;31.13;;;11.40;76.30;;;;;;5093214;28;20040;-71
2020/12/09 15:26:09;;;;;;;59.05;34.50;;;11.40;76.10;;;;;;5093577;28;20088;-72
2020/12/09 15:28:37;;;;;;;142.88;85.05;;;11.20;76.00;;;;;;5084902;28;20044;-73
2020/12/09 15:31:03;;;;;;;99.90;59.58;;;11.40;76.00;;;;;;5084230;28;20044;-71
2020/12/09 15:33:30;;;;;;;56.53;35.47;;;11.20;75.90;;;;;;5087053;28;20060;-72
2020/12/09 15:35:56;;;;;;;48.80;35.30;;;10.90;75.00;;;;;;5072898;28;20044;-71
2020/12/09 15:38:22;;;;;;;51.03;34.20;;;11.30;75.80;;;;;;5080073;28;20029;-72
2020/12/09 15:40:49;;;;;;;34.22;21.50;;;10.90;75.70;;;;;;5080093;28;20051;-72
2020/12/09 15:43:16;;;;;;;35.67;19.63;;;10.70;76.10;;;;;;5085994;28;20169;-72
2020/12/09 15:45:42;;;;;;;75.07;38.78;;;10.10;75.60;;;;;;5088085;28;20138;-71
2020/12/09 15:48:09;;;;;;;101.50;52.80;;;10.20;76.10;;;;;;5090092;28;20040;-71
2020/12/09 15:50:35;;;;;;;127.85;68.07;;;10.40;76.50;;;;;;5090437;28;20050;-71
2020/12/09 15:53:01;;;;;;;131.50;68.32;;;10.40;76.50;;;;;;5093198;28;20039;-70
2020/12/09 15:55:26;;;;;;;112.68;53.88;;;10.20;76.60;;;;;;5092871;28;20055;-71
2020/12/09 15:57:52;;;;;;;73.25;34.72;;;10.20;77.00;;;;;;5082196;28;20058;-71
2020/12/09 16:00:18;;;;;;;62.97;27.67;;;9.80;76.80;;;;;;5082857;28;20043;-71
2020/12/09 16:02:44;;;;;;;84.57;41.67;;;10.10;76.80;;;;;;5085949;28;20423;-71
2020/12/09 16:05:12;;;;;;;93.32;48.50;;;9.50;76.60;;;;;;5083990;28;20049;-72
2020/12/09 16:07:40;;;;;;;90.18;49.70;;;9.50;77.00;;;;;;5081561;28;20028;-72
2020/12/09 16:10:11;;;;;;;58.03;30.17;;;9.80;77.00;;;;;;5082452;28;20045;-72
2020/12/09 16:12:39;;;;;;;55.80;24.85;;;10.00;77.90;;;;;;5080279;28;20044;-72
2020/12/09 16:15:07;;;;;;;40.78;17.38;;;9.50;77.20;;;;;;5086345;28;20039;-73
2020/12/09 16:17:34;;;;;;;32.65;13.88;;;10.10;77.30;;;;;;5107312;28;20063;-72
2020/12/09 16:20:01;;;;;;;26.27;11.38;;;9.30;76.90;;;;;;5107048;28;20040;-72
2020/12/09 16:22:27;;;;;;;22.75;8.65;;;9.60;76.80;;;;;;5106745;28;20126;-72
2020/12/09 16:24:54;;;;;;;23.05;8.82;;;9.40;77.20;;;;;;5106414;28;20443;-72
2020/12/09 16:27:20;;;;;;;24.83;9.82;;;9.50;76.50;;;;;;5106848;28;20398;-72
2020/12/09 16:29:48;;;;;;;25.65;9.07;;;9.30;76.60;;;;;;5109030;28;20040;-72
2020/12/09 16:32:14;;;;;;;20.10;7.97;;;9.80;77.20;;;;;;5108320;28;20096;-72
2020/12/09 16:34:41;;;;;;;21.55;7.95;;;9.20;76.70;;;;;;5108799;28;20126;-72
2020/12/09 16:37:12;;;;;;;17.77;7.93;;;9.30;76.80;;;;;;5108195;28;20027;-72
2020/12/09 16:39:40;;;;;;;20.27;8.10;;;9.70;76.30;;;;;;5105866;28;20050;-70
2020/12/09 16:42:07;;;;;;;16.65;8.07;;;10.00;77.80;;;;;;5108621;28;20084;-71
2020/12/09 16:44:33;;;;;;;18.90;8.07;;;9.10;77.20;;;;;;5105031;28;20044;-71
2020/12/09 16:46:59;;;;;;;21.73;8.20;;;9.50;77.40;;;;;;5107685;28;20028;-71
2020/12/09 16:49:25;;;;;;;18.27;6.68;;;9.60;77.80;;;;;;5107632;28;20078;-71
2020/12/09 16:51:51;;;;;;;19.75;8.07;;;9.30;77.50;;;;;;5107124;28;20032;-71
2020/12/09 16:54:18;;;;;;;18.63;7.82;;;9.80;77.70;;;;;;5104401;28;20177;-71
2020/12/09 16:56:45;;;;;;;16.88;10.00;;;9.50;77.70;;;;;;5108432;28;20066;-71
2020/12/09 16:59:11;;;;;;;21.88;7.15;;;9.70;78.10;;;;;;5105333;28;20039;-72
2020/12/09 17:01:41;;;;;;;17.33;8.00;;;9.70;78.00;;;;;;5110165;28;20035;-71
2020/12/09 17:04:11;;;;;;;16.27;7.40;;;9.50;78.20;;;;;;5106595;28;20036;-72
2020/12/09 17:06:38;;;;;;;18.23;7.68;;;9.40;78.70;;;;;;5104755;28;20028;-73
2020/12/09 17:09:08;;;;;;;16.60;8.02;;;9.50;78.10;;;;;;5106571;28;20531;-72
2020/12/09 17:11:34;;;;;;;16.50;6.80;;;9.40;78.20;;;;;;5088853;28;20086;-72
2020/12/09 17:14:00;;;;;;;14.23;6.95;;;9.10;78.00;;;;;;5105136;28;20088;-72
2020/12/09 17:16:26;;;;;;;15.95;7.53;;;9.10;78.10;;;;;;5094949;28;20043;-72
2020/12/09 17:18:52;;;;;;;21.70;7.90;;;9.10;77.90;;;;;;5086236;28;20529;-72
2020/12/09 17:21:25;;;;;;;16.80;7.22;;;9.20;78.20;;;;;;5084381;28;20044;-72
2020/12/09 17:23:53;;;;;;;21.92;9.40;;;9.10;78.60;;;;;;5085836;28;20563;-72
2020/12/09 17:26:19;;;;;;;18.17;7.60;;;9.20;78.70;;;;;;5085780;28;20512;-72
2020/12/09 17:28:46;;;;;;;18.63;7.30;;;9.00;78.40;;;;;;5085031;28;20059;-72
2020/12/09 17:31:13;;;;;;;14.15;6.50;;;9.40;78.30;;;;;;5086888;28;20040;-72
2020/12/09 17:33:39;;;;;;;16.00;6.50;;;9.60;78.50;;;;;;5083599;28;20202;-71
2020/12/09 17:36:05;;;;;;;16.73;6.35;;;9.10;77.90;;;;;;5087195;28;20543;-72
2020/12/09 17:38:31;;;;;;;18.10;6.82;;;9.10;78.40;;;;;;5095569;28;20114;-71
2020/12/09 17:40:58;;;;;;;15.75;6.95;;;9.40;79.00;;;;;;5096019;28;20078;-73
2020/12/09 17:43:24;;;;;;;16.95;7.78;;;9.70;78.80;;;;;;5095470;28;20122;-73
2020/12/09 17:45:52;;;;;;;22.92;12.45;;;9.50;78.70;;;;;;5095487;28;20486;-73
2020/12/09 17:48:20;;;;;;;17.27;6.78;;;9.00;78.80;;;;;;5095727;28;20075;-73
2020/12/09 17:50:47;;;;;;;15.25;7.50;;;9.40;78.40;;;;;;5095983;28;20043;-73
2020/12/09 17:53:13;;;;;;;15.85;6.95;;;9.30;78.40;;;;;;5094952;28;20040;-72
2020/12/09 17:55:40;;;;;;;13.30;6.03;;;9.80;78.30;;;;;;5095514;28;20047;-72
2020/12/09 17:58:06;;;;;;;19.35;9.27;;;9.50;78.10;;;;;;5095410;28;20071;-71
2020/12/09 18:00:33;;;;;;;15.70;6.53;;;9.00;78.50;;;;;;5095237;28;20039;-72
2020/12/09 18:02:59;;;;;;;20.85;8.77;;;9.30;78.50;;;;;;5095238;28;20044;-72
2020/12/09 18:05:25;;;;;;;16.00;6.43;;;9.60;79.00;;;;;;5095161;28;20036;-73
2020/12/09 18:07:51;;;;;;;17.63;6.60;;;9.30;79.10;;;;;;5094544;28;20040;-73
2020/12/09 18:10:17;;;;;;;12.75;5.75;;;9.30;79.30;;;;;;5095095;28;20036;-71
2020/12/09 18:12:43;;;;;;;17.23;7.40;;;9.20;79.20;;;;;;5094763;28;20043;-73
2020/12/09 18:15:09;;;;;;;11.02;5.03;;;9.20;78.20;;;;;;5094498;28;20050;-72
2020/12/09 18:17:35;;;;;;;11.93;5.68;;;9.20;78.10;;;;;;5094385;28;20054;-71
2020/12/09 18:20:02;;;;;;;15.15;4.63;;;9.10;78.20;;;;;;5095307;28;20032;-71
2020/12/09 18:22:31;;;;;;;10.55;4.03;;;9.30;78.60;;;;;;5095424;28;20043;-71
2020/12/09 18:24:58;;;;;;;13.48;4.18;;;9.30;79.70;;;;;;5095336;28;20443;-71
2020/12/09 18:27:24;;;;;;;13.73;4.47;;;9.30;79.30;;;;;;5095086;28;20047;-71
2020/12/09 18:29:50;;;;;;;11.30;4.10;;;9.10;78.50;;;;;;5095155;28;20318;-70
2020/12/09 18:32:16;;;;;;;15.93;5.53;;;9.20;79.10;;;;;;5094959;28;20499;-71
2020/12/09 18:34:42;;;;;;;17.77;7.75;;;9.40;79.10;;;;;;5095208;28;20182;-71
2020/12/09 18:37:08;;;;;;;23.45;9.30;;;9.00;79.00;;;;;;5094340;28;20036;-71
2020/12/09 18:39:34;;;;;;;17.73;7.03;;;9.40;79.30;;;;;;5095304;28;20445;-71
2020/12/09 18:41:59;;;;;;;14.00;5.82;;;9.00;79.10;;;;;;5094978;28;20036;-71
2020/12/09 18:44:25;;;;;;;10.57;4.35;;;9.40;79.60;;;;;;5095335;28;20082;-71
2020/12/09 18:46:51;;;;;;;16.60;4.57;;;9.70;79.50;;;;;;5094594;28;20085;-71
2020/12/09 18:49:17;;;;;;;16.88;4.15;;;9.30;79.70;;;;;;5076703;28;20429;-71
2020/12/09 18:51:43;;;;;;;12.05;3.67;;;9.20;79.70;;;;;;5094156;28;20028;-72
2020/12/09 18:54:09;;;;;;;12.65;3.92;;;9.40;80.00;;;;;;5076280;28;20062;-72
2020/12/09 18:56:34;;;;;;;11.10;3.28;;;9.10;79.60;;;;;;5087252;28;20151;-73
2020/12/09 18:59:00;;;;;;;8.70;3.42;;;9.40;79.30;;;;;;5082130;28;20460;-72
2020/12/09 19:01:28;;;;;;;9.30;3.70;;;9.90;79.40;;;;;;5074177;28;20093;-72
2020/12/09 19:03:54;;;;;;;10.23;3.63;;;9.70;79.10;;;;;;5074385;28;20140;-72
2020/12/09 19:06:27;;;;;;;14.60;5.28;;;9.40;79.40;;;;;;5056212;28;20035;-71
2020/12/09 19:08:53;;;;;;;14.35;6.38;;;9.40;78.60;;;;;;5074296;28;20083;-71
2020/12/09 19:11:21;;;;;;;9.85;3.80;;;9.70;79.60;;;;;;5073816;28;20496;-72
2020/12/09 19:13:47;;;;;;;15.23;3.90;;;9.40;79.50;;;;;;5080754;28;20490;-71
2020/12/09 19:16:13;;;;;;;16.95;5.28;;;9.00;78.90;;;;;;5082517;28;20078;-71
2020/12/09 19:18:39;;;;;;;13.48;4.95;;;10.00;80.00;;;;;;5083784;28;20028;-71
2020/12/09 19:21:05;;;;;;;15.20;5.13;;;9.80;79.70;;;;;;5083496;28;20043;-71
2020/12/09 19:23:31;;;;;;;12.35;4.57;;;9.10;79.70;;;;;;5074363;28;20041;-72
2020/12/09 19:25:57;;;;;;;14.63;4.75;;;9.50;79.50;;;;;;5073794;28;20045;-72
2020/12/09 19:28:23;;;;;;;15.45;5.65;;;9.20;79.90;;;;;;5073615;28;20162;-72
2020/12/09 19:30:49;;;;;;;19.55;7.68;;;9.30;80.10;;;;;;5081042;28;20126;-72
2020/12/09 19:33:15;;;;;;;14.35;5.68;;;10.00;80.60;;;;;;5093687;28;20055;-71
2020/12/09 19:35:41;;;;;;;17.80;5.40;;;9.50;80.50;;;;;;5094261;28;20040;-72
2020/12/09 19:38:07;;;;;;;13.88;5.28;;;9.40;80.40;;;;;;5094307;28;20119;-72
2020/12/09 19:40:33;;;;;;;14.98;6.15;;;9.20;80.40;;;;;;5093779;28;20499;-72
2020/12/09 19:42:59;;;;;;;15.55;5.47;;;9.50;80.80;;;;;;5094038;28;20558;-72
2020/12/09 19:45:24;;;;;;;10.75;3.30;;;9.10;80.80;;;;;;5094265;28;20121;-72
2020/12/09 19:47:50;;;;;;;9.82;2.92;;;9.10;81.00;;;;;;5093311;28;20437;-72
2020/12/09 19:50:16;;;;;;;11.27;3.00;;;9.20;80.50;;;;;;5093681;28;20495;-72
2020/12/09 19:52:44;;;;;;;8.27;2.45;;;9.70;81.20;;;;;;5093869;28;20470;-71
2020/12/09 19:55:10;;;;;;;10.02;2.90;;;9.30;81.10;;;;;;5093950;28;20135;-71
2020/12/09 19:57:36;;;;;;;9.55;2.38;;;9.60;81.00;;;;;;5093887;28;20072;-71
2020/12/09 20:00:03;;;;;;;9.30;3.10;;;9.80;81.60;;;;;;5093972;28;20036;-71
2020/12/09 20:02:28;;;;;;;9.02;3.28;;;9.30;80.90;;;;;;5094207;28;20040;-71
2020/12/09 20:04:55;;;;;;;10.73;2.95;;;10.20;81.30;;;;;;5079514;28;20039;-71
2020/12/09 20:07:20;;;;;;;11.82;2.70;;;10.00;80.80;;;;;;5094305;28;20048;-71
2020/12/09 20:09:46;;;;;;;13.57;3.20;;;9.90;81.10;;;;;;5091288;28;20047;-71
2020/12/09 20:12:12;;;;;;;11.55;2.60;;;9.80;81.20;;;;;;5073149;28;20384;-71
2020/12/09 20:14:38;;;;;;;10.48;2.70;;;9.90;81.70;;;;;;5073670;28;20117;-71
2020/12/09 20:17:04;;;;;;;9.35;2.28;;;9.80;81.40;;;;;;5073925;28;20072;-71
2020/12/09 20:19:30;;;;;;;13.65;2.85;;;9.70;81.50;;;;;;5072836;28;20063;-71
2020/12/09 20:21:57;;;;;;;12.95;2.38;;;9.30;81.60;;;;;;5055361;28;20392;-71
2020/12/09 20:24:23;;;;;;;10.98;2.60;;;9.70;81.70;;;;;;5072859;28;20033;-71
2020/12/09 20:26:50;;;;;;;10.32;2.42;;;9.50;81.90;;;;;;5054114;28;20442;-71
2020/12/09 20:29:17;;;;;;;9.43;2.20;;;9.70;82.00;;;;;;5072757;28;20033;-71
2020/12/09 20:31:43;;;;;;;10.20;2.40;;;9.50;81.10;;;;;;5073292;28;20052;-71
2020/12/09 20:34:09;;;;;;;11.27;2.25;;;9.20;82.10;;;;;;5073692;28;20048;-71
2020/12/09 20:36:36;;;;;;;12.88;2.25;;;9.50;82.30;;;;;;5055667;28;20049;-71
2020/12/09 20:39:05;;;;;;;8.77;2.03;;;9.60;82.20;;;;;;5073285;28;20040;-71
2020/12/09 20:41:36;;;;;;;8.90;2.30;;;9.60;82.20;;;;;;5073278;28;20045;-71
2020/12/09 20:44:03;;;;;;;8.93;2.10;;;9.50;81.80;;;;;;5073670;28;20549;-71
2020/12/09 20:46:30;;;;;;;8.38;2.33;;;9.70;82.90;;;;;;5073713;28;20093;-71
2020/12/09 20:48:58;;;;;;;9.70;2.30;;;9.50;82.80;;;;;;5073331;28;20123;-71
2020/12/09 20:51:56;;;;;;;13.13;2.08;;;9.80;83.20;;;;;;5073469;28;20119;-71
2020/12/09 20:54:22;;;;;;;12.90;2.40;;;9.90;83.70;;;;;;5028550;28;20094;-71
2020/12/09 20:56:48;;;;;;;10.88;2.00;;;9.00;83.20;;;;;;5055403;28;20037;-71
2020/12/09 20:59:15;;;;;;;8.73;1.85;;;9.40;83.40;;;;;;5093683;28;20123;-71
2020/12/09 21:01:41;;;;;;;7.90;2.30;;;9.70;83.40;;;;;;5096874;28;20044;-71
2020/12/09 21:04:08;;;;;;;7.03;2.08;;;9.50;83.50;;;;;;5097214;28;20032;-71
2020/12/09 21:06:38;;;;;;;7.03;1.67;;;9.30;83.20;;;;;;5078728;28;20053;-71
2020/12/09 21:09:06;;;;;;;7.97;1.67;;;9.50;83.70;;;;;;5096842;28;20036;-71
2020/12/09 21:11:32;;;;;;;9.75;2.47;;;9.50;83.70;;;;;;5096757;28;20071;-71
2020/12/09 21:13:58;;;;;;;7.05;2.03;;;9.20;83.30;;;;;;5096995;28;20433;-71
2020/12/09 21:16:24;;;;;;;8.90;2.08;;;9.50;83.70;;;;;;5096873;28;20077;-71
2020/12/09 21:18:49;;;;;;;10.43;1.98;;;9.20;84.00;;;;;;5091215;28;20089;-71
2020/12/09 21:21:23;;;;;;;6.53;1.98;;;9.80;84.30;;;;;;5083422;28;20048;-70
2020/12/09 21:23:50;;;;;;;13.05;2.40;;;9.40;84.50;;;;;;5089008;28;20069;-70
2020/12/09 21:26:17;;;;;;;9.95;2.00;;;9.40;84.40;;;;;;5096852;28;20040;-71
2020/12/09 21:28:43;;;;;;;9.52;2.30;;;9.60;84.60;;;;;;5096809;28;20127;-70
2020/12/09 21:31:19;;;;;;;9.38;2.15;;;9.50;84.00;;;;;;5097031;28;20078;-70
2020/12/09 21:33:45;;;;;;;10.55;2.20;;;9.50;84.60;;;;;;5095507;28;20048;-70
2020/12/09 21:36:20;;;;;;;7.75;2.00;;;9.50;84.50;;;;;;5095755;28;20118;-70
2020/12/09 21:38:46;;;;;;;;;;;9.70;85.60;;;;;;5096742;28;20040;-70
2020/12/09 21:41:12;;;;;;;8.27;2.30;;;10.00;86.40;;;;;;5096345;28;19915;-70
2020/12/09 21:43:38;;;;;;;9.38;2.22;;;9.90;85.70;;;;;;5096385;28;20546;-70
2020/12/09 21:46:04;;;;;;;7.18;1.55;;;9.60;85.40;;;;;;5096603;28;20383;-70
2020/12/09 21:48:30;;;;;;;5.03;1.58;;;9.60;85.60;;;;;;5095995;28;20120;-70
2020/12/09 21:50:56;;;;;;;4.90;1.80;;;9.90;86.10;;;;;;5096501;28;20043;-70
2020/12/09 21:53:21;;;;;;;9.65;1.80;;;9.60;86.30;;;;;;5096098;28;20044;-70